Québec, Quebec

07:15 EST le 25 janvier 2015 (GMT -0500)
Ancienne-Lorette | Change Station
CLOSE
Current Station
Stations météorologiques personnelles
Location: LAncienne-Lorette, QUéBEC
Altitude: 187 ft
Stations météo à proximité

Alt. 187 ft 46.80 °N, 71.37 °W | Updated 49 seconds ago

Partly Cloudy
Partiellement nuageux
9.4 ° F
Paraît -6 ° F
N
12.0
Vent Variable Vent de Ouest
Gusts 13.0 mph

Aujourd’hui il est prévu de faire pratiquement la même température qu’hier.

Aujourd'hui
Haut(e) -- | Bas -- ° F
--% Risque de précip.
Hier
Haut(e) -- | Bas -- ° F
Precip. -- pouce
7:18 AM 4:38 PM
Lune montante, 31% visible
Pression 29.42 pouce
Visibilité 30.0 Miles terrestres
Nuages Peu 5000 ft
Peu 10000 ft
Refroidissement éolien -6 ° F
Point de rosée 3 ° F
Humidité 74%
Précipitations 0.00 pouce
Profondeur de la couche neigeuse Non disponible.
UV 0 sur 12
Pollen Non disponible.
Qualité de l'air Non disponible.
Flu Activity Non disponible.
METAR CYQB 251200Z 26014KT 30SM FEW050 FEW100 M13/M18 A2941 RMK CF1AC1 PRESRR SLP963

More Conditions Fewer Conditions

Pression 29.42 pouce
Visibilité 30.0 Miles terrestres
Nuages Peu 5000 ft
Peu 10000 ft
Refroidissement éolien -6 ° F
Point de rosée 3 ° F
Humidité 74%
Précipitations 0.00 pouce
Profondeur de la couche neigeuse Non disponible.
UV 0 sur 12
Pollen Non disponible.
Qualité de l'air Non disponible.
Flu Activity Non disponible.
METAR CYQB 251200Z 26014KT 30SM FEW050 FEW100 M13/M18 A2941 RMK CF1AC1 PRESRR SLP963

More Conditions Fewer Conditions

10-Day Weather Forecast

Almanac

Astronomie

Jan. 25, 2015 Lever Coucher
Temps réel
Crépuscule civil
Crépuscule nautique
Crépuscule astronomique
Lune
Durée de lumière visible
Longueur du jour
Tomorrow will be .
, % of the Moon is Illuminated

Extrêmes aujourd'hui

Country Highs Country Lows

Community

WunderPhotos

Upload Photos

1,789,873 Photos téléchargées !

WunderBlogs® & News

Nearby

Qualité de l'air

  Qualité de l'air Indice de la qualité de l'air Polluant
Not available.

Épaisseur de neige

Station Depth Altitude

Activité sismique

Ville Distance Mag. Time & Date
Minimum magnitude displayed is 2.5.

Températures des eaux côtières

Lieu Température

Stations météo à proximité